Terminal Aerodrome Forecast
Issued by NWS

Home | Current Version | Previous Version | Text Only | Print | Product List | Glossary On
Versions: 1 2 3 4 5 6 7 8 9 10 11 12 13 14 15 16 17 18 19 20 21 22 23 24 25 26 27 28 29 30 31 32 33 34 35 36 37 38 39 40 41 42 43 44 45 46 47 48 49 50
000
FTUS43 KMKX 252322
TAFUES
TAF
KUES 252322Z 2600/2624 22011KT P6SM SCT050
     FM260300 21007KT P6SM FEW060 SCT250
     FM261000 21006KT 5SM BR BKN200
     FM261400 21007KT P6SM SCT010 BKN200
     FM261600 19008KT P6SM BKN110
     FM261700 19009KT 6SM SHRA BR VCTS SCT040CB BKN090
     FM262100 18010KT 5SM SHRA BR VCTS BKN035CB=

USA.gov is the U.S. government's official web portal to all federal, state and local government web resources and services.